Time;durP1;ratioP1;P1;durP2;ratioP2;P2;SDS_P1;SDS_P2;PMS_P1;PMS_P2;Temp;Humidity;BMP_temperature;BMP_pressure;BME280_temperature;BME280_humidity;BME280_pressure;Samples;Min_cycle;Max_cycle;Signal;HPM_P1;HPM_P2
2022/03/02 00:00:09;;;;;;;10.40;6.03;;;;;;;-3.78;94.72;102252.53;5022664;28;20057;-79
2022/03/02 00:02:36;;;;;;;8.10;5.37;;;;;;;-3.92;95.37;102254.25;5036223;28;20046;-79
2022/03/02 00:05:06;;;;;;;9.30;5.87;;;;;;;-3.92;96.23;102240.44;5026130;28;20488;-80
2022/03/02 00:07:33;;;;;;;11.03;5.93;;;;;;;-3.87;96.08;102239.03;4990876;28;20130;-79
2022/03/02 00:10:03;;;;;;;9.33;6.47;;;;;;;-3.82;95.06;102253.13;4981564;28;20504;-79
2022/03/02 00:12:30;;;;;;;8.20;5.50;;;;;;;-3.92;95.92;102240.44;4991495;28;20489;-79
2022/03/02 00:14:59;;;;;;;8.73;5.13;;;;;;;-3.96;95.94;102241.91;5014820;28;20053;-79
2022/03/02 00:17:26;;;;;;;9.10;5.67;;;;;;;-3.89;95.83;102249.25;5010770;28;20064;-79
2022/03/02 00:19:55;;;;;;;8.67;6.30;;;;;;;-3.79;96.46;102248.16;5025409;28;20048;-79
2022/03/02 00:22:22;;;;;;;8.23;5.80;;;;;;;-3.82;95.14;102258.28;5014849;28;20100;-79
2022/03/02 00:24:50;;;;;;;11.30;6.10;;;;;;;-3.90;96.07;102262.97;5009005;28;20116;-79
2022/03/02 00:27:24;;;;;;;11.50;6.13;;;;;;;-4.06;97.07;102250.78;5030569;28;20065;-79
2022/03/02 00:29:52;;;;;;;10.90;6.07;;;;;;;-4.14;97.82;102253.66;5043482;28;20042;-79
2022/03/02 00:32:22;;;;;;;12.40;6.30;;;;;;;-4.15;97.26;102242.44;5027165;28;20034;-79
2022/03/02 00:34:50;;;;;;;9.10;5.97;;;;;;;-4.15;96.92;102244.13;5010203;28;20083;-79
2022/03/02 00:37:19;;;;;;;9.93;5.60;;;;;;;-4.17;97.09;102250.91;5026097;28;20053;-79
2022/03/02 00:39:49;;;;;;;11.40;6.50;;;;;;;-4.20;97.53;102243.84;4979561;28;20056;-79
2022/03/02 00:42:16;;;;;;;12.23;6.13;;;;;;;-4.20;98.69;102241.28;4969088;28;20037;-80
2022/03/02 00:44:42;;;;;;;9.17;6.43;;;;;;;-4.17;98.74;102241.47;5009978;28;20042;-79
2022/03/02 00:47:11;;;;;;;11.30;6.03;;;;;;;-4.19;99.10;102247.34;5027620;28;20065;-79
2022/03/02 00:49:38;;;;;;;10.57;6.33;;;;;;;-4.25;98.84;102247.81;5007733;28;20042;-79
2022/03/02 00:52:06;;;;;;;9.47;5.87;;;;;;;-4.26;99.56;102238.28;5006459;28;20466;-79
2022/03/02 00:54:33;;;;;;;13.40;6.13;;;;;;;-4.18;99.49;102244.84;5028345;28;20432;-79
2022/03/02 00:57:03;;;;;;;11.67;6.67;;;;;;;-4.11;99.54;102246.13;4985308;28;20041;-78
2022/03/02 00:59:30;;;;;;;11.03;6.07;;;;;;;-4.15;99.47;102245.03;5009774;28;20050;-79
2022/03/02 01:01:56;;;;;;;9.27;5.93;;;;;;;-4.26;100.00;102246.03;5004926;28;20675;-79
2022/03/02 01:04:23;;;;;;;10.77;6.07;;;;;;;-4.21;100.00;102228.25;5009076;28;20117;-79
2022/03/02 01:06:52;;;;;;;10.63;6.03;;;;;;;-4.25;100.00;102225.47;4994072;28;20076;-79
2022/03/02 01:09:19;;;;;;;10.77;6.60;;;;;;;-4.33;100.00;102223.22;5013140;28;20041;-79
2022/03/02 01:11:54;;;;;;;9.60;5.80;;;;;;;-4.40;100.00;102226.19;5017744;28;20042;-79
2022/03/02 01:14:22;;;;;;;10.77;6.93;;;;;;;-4.37;100.00;102226.38;4992170;28;20570;-79
2022/03/02 01:16:49;;;;;;;14.20;7.20;;;;;;;-4.32;100.00;102230.16;4964036;28;20058;-79
2022/03/02 01:19:16;;;;;;;10.83;6.73;;;;;;;-4.40;100.00;102224.50;5011120;28;20040;-79
2022/03/02 01:21:43;;;;;;;13.63;6.63;;;;;;;-4.44;100.00;102219.94;4980432;28;20083;-79
2022/03/02 01:24:10;;;;;;;10.70;6.37;;;;;;;-4.44;100.00;102222.53;5019857;28;20046;-79
2022/03/02 01:26:36;;;;;;;10.23;5.70;;;;;;;-4.38;100.00;102224.59;5002895;28;20493;-79
2022/03/02 01:29:08;;;;;;;9.13;6.40;;;;;;;-4.40;100.00;102211.59;5010981;28;20050;-80
2022/03/02 01:31:36;;;;;;;10.57;7.10;;;;;;;-4.43;100.00;102207.94;5004262;28;20481;-79
2022/03/02 01:34:07;;;;;;;13.03;6.77;;;;;;;-4.51;100.00;102207.44;5011782;28;20049;-79
2022/03/02 01:36:35;;;;;;;8.90;5.80;;;;;;;-4.52;100.00;102205.66;5021125;28;20080;-79
2022/03/02 01:39:03;;;;;;;9.90;7.00;;;;;;;-4.55;100.00;102203.75;5012209;28;20061;-79
2022/03/02 01:41:29;;;;;;;13.30;7.30;;;;;;;-4.50;100.00;102203.16;5009010;28;20042;-79
2022/03/02 01:43:57;;;;;;;9.23;6.27;;;;;;;-4.39;100.00;102197.00;5004686;28;20109;-79
2022/03/02 01:46:26;;;;;;;13.77;7.63;;;;;;;-4.42;100.00;102192.56;5019351;28;20045;-79
2022/03/02 01:48:52;;;;;;;11.37;7.23;;;;;;;-4.49;100.00;102189.47;4999961;28;20488;-79
2022/03/02 01:51:20;;;;;;;11.87;6.80;;;;;;;-4.55;100.00;102190.84;4992004;28;20042;-79
2022/03/02 01:53:46;;;;;;;14.47;7.80;;;;;;;-4.57;100.00;102182.13;5004106;28;20114;-79
2022/03/02 01:56:13;;;;;;;14.57;7.13;;;;;;;-4.45;100.00;102186.31;5004724;28;21836;-79
2022/03/02 01:58:40;;;;;;;14.47;7.40;;;;;;;-4.34;100.00;102183.63;5007150;28;20049;-80
2022/03/02 02:01:07;;;;;;;14.90;7.77;;;;;;;-4.38;100.00;102178.16;5001374;28;20444;-79
2022/03/02 02:03:34;;;;;;;13.07;7.77;;;;;;;-4.28;100.00;102181.44;5023456;28;20029;-79
2022/03/02 02:06:01;;;;;;;11.23;7.80;;;;;;;-4.22;100.00;102180.03;5007788;28;20628;-79
2022/03/02 02:08:28;;;;;;;10.70;7.13;;;;;;;-4.30;100.00;102175.25;5015759;28;20038;-79
2022/03/02 02:10:56;;;;;;;12.87;7.57;;;;;;;-4.37;100.00;102172.19;4991797;28;20042;-79
2022/03/02 02:13:24;;;;;;;11.73;7.07;;;;;;;-4.28;100.00;102180.53;5021666;28;20045;-79
2022/03/02 02:15:53;;;;;;;12.70;7.40;;;;;;;-4.41;100.00;102163.38;5022964;28;20042;-79
2022/03/02 02:18:20;;;;;;;14.70;7.97;;;;;;;-4.32;100.00;102152.75;5023292;28;20113;-79
2022/03/02 02:20:47;;;;;;;12.97;7.23;;;;;;;-4.22;100.00;102155.09;4979092;28;20093;-79
2022/03/02 02:23:14;;;;;;;13.50;7.47;;;;;;;-4.29;100.00;102151.28;4988157;28;20038;-79
2022/03/02 02:25:41;;;;;;;12.30;8.03;;;;;;;-4.34;100.00;102150.06;5003654;28;20049;-80
2022/03/02 02:28:10;;;;;;;11.53;7.93;;;;;;;-4.28;100.00;102150.47;5004111;28;20053;-79
2022/03/02 02:30:38;;;;;;;13.37;8.67;;;;;;;-4.25;100.00;102142.91;5038730;28;20048;-79
2022/03/02 02:33:05;;;;;;;14.60;8.40;;;;;;;-4.26;100.00;102141.13;5086106;23;20033;-79
2022/03/02 02:35:34;;;;;;;13.73;7.50;;;;;;;-4.26;100.00;102140.25;5023779;28;20509;-80
2022/03/02 02:38:00;;;;;;;13.80;7.53;;;;;;;-4.31;100.00;102131.31;5039455;28;20048;-80
2022/03/02 02:40:28;;;;;;;13.63;7.57;;;;;;;-4.32;100.00;102129.53;5036807;28;20037;-84
2022/03/02 02:42:55;;;;;;;14.90;7.17;;;;;;;-4.26;100.00;102132.50;5039712;28;20449;-80
2022/03/02 02:45:23;;;;;;;11.50;7.60;;;;;;;-4.15;100.00;102130.59;5019273;28;20572;-84
2022/03/02 02:47:54;;;;;;;12.00;6.53;;;;;;;-4.14;100.00;102129.78;5035740;28;20495;-85
2022/03/02 02:50:29;;;;;;;13.20;7.17;;;;;;;-4.16;100.00;102128.81;5039257;28;20041;-80
2022/03/02 02:52:58;;;;;;;16.37;8.97;;;;;;;-4.16;100.00;102129.69;5052283;28;20501;-82
2022/03/02 02:55:26;;;;;;;12.83;7.70;;;;;;;-4.21;100.00;102125.91;5028431;28;20099;-81
2022/03/02 02:57:54;;;;;;;14.93;7.03;;;;;;;-4.22;100.00;102128.41;5045259;28;20458;-80
2022/03/02 03:00:25;;;;;;;12.13;7.20;;;;;;;-4.26;100.00;102127.34;5034043;28;20041;-80
2022/03/02 03:02:53;;;;;;;11.37;7.13;;;;;;;-4.26;100.00;102128.22;5019762;28;20485;-80
2022/03/02 03:05:22;;;;;;;14.47;8.27;;;;;;;-4.27;100.00;102121.28;5037503;28;20410;-79
2022/03/02 03:07:49;;;;;;;11.20;6.93;;;;;;;-4.26;100.00;102117.03;5043385;28;20135;-81
2022/03/02 03:10:17;;;;;;;14.00;8.07;;;;;;;-4.27;100.00;102110.09;5037634;28;20041;-82
2022/03/02 03:12:45;;;;;;;11.97;7.33;;;;;;;-4.24;100.00;102115.41;5064058;28;20036;-83
2022/03/02 03:15:13;;;;;;;12.13;7.90;;;;;;;-4.21;100.00;102112.13;5063864;28;20040;-83
2022/03/02 03:17:40;;;;;;;13.17;7.30;;;;;;;-4.14;100.00;102112.59;5044139;28;20514;-82
2022/03/02 03:20:09;;;;;;;13.93;7.60;;;;;;;-4.17;100.00;102103.81;5025795;28;20040;-85
2022/03/02 03:22:36;;;;;;;13.87;7.53;;;;;;;-4.21;100.00;102118.19;5050578;28;20056;-83
2022/03/02 03:25:04;;;;;;;13.87;6.83;;;;;;;-4.24;100.00;102105.09;5055464;28;20051;-81
2022/03/02 03:27:31;;;;;;;10.60;7.53;;;;;;;-4.23;100.00;102108.56;5019521;28;20041;-80
2022/03/02 03:29:58;;;;;;;15.33;7.83;;;;;;;-4.23;100.00;102104.31;5014773;28;20491;-80
2022/03/02 03:32:26;;;;;;;13.33;7.97;;;;;;;-4.20;100.00;102108.75;5036365;28;20410;-80
2022/03/02 03:34:53;;;;;;;12.60;8.27;;;;;;;-4.15;100.00;102107.34;5038911;28;20040;-80
2022/03/02 03:37:20;;;;;;;16.10;8.40;;;;;;;-4.20;100.00;102096.78;5022605;28;20044;-81
2022/03/02 03:39:46;;;;;;;12.00;8.30;;;;;;;-4.23;100.00;102098.25;5035215;28;20045;-79
2022/03/02 03:42:13;;;;;;;12.50;7.83;;;;;;;-4.23;100.00;102106.88;5070292;28;20098;-79
2022/03/02 03:44:39;;;;;;;13.50;7.43;;;;;;;-4.18;100.00;102097.75;5022193;28;20048;-80
2022/03/02 03:47:06;;;;;;;16.03;8.13;;;;;;;-4.15;100.00;102103.09;5062739;28;20135;-81
2022/03/02 03:49:34;;;;;;;12.93;8.17;;;;;;;-4.10;100.00;102103.38;5050588;28;20129;-80
2022/03/02 03:52:00;;;;;;;15.23;9.00;;;;;;;-4.12;100.00;102098.13;5026082;28;20499;-80
2022/03/02 03:54:27;;;;;;;11.80;7.50;;;;;;;-4.14;100.00;102091.06;5051688;28;20040;-80
2022/03/02 03:56:54;;;;;;;15.33;8.83;;;;;;;-4.11;100.00;102105.06;5042507;28;20131;-81
2022/03/02 03:59:20;;;;;;;16.00;9.03;;;;;;;-4.09;100.00;102105.16;5037532;28;20094;-80
2022/03/02 04:01:47;;;;;;;19.37;9.87;;;;;;;-4.03;100.00;102109.03;5034184;28;20036;-80
2022/03/02 04:04:14;;;;;;;13.00;8.47;;;;;;;-4.03;100.00;102097.81;5020702;28;20041;-80
2022/03/02 04:06:41;;;;;;;16.53;8.83;;;;;;;-4.05;100.00;102101.97;5021230;28;20389;-80
2022/03/02 04:09:07;;;;;;;12.33;8.47;;;;;;;-4.07;100.00;102099.28;5037193;28;20545;-82
2022/03/02 04:11:34;;;;;;;12.77;8.10;;;;;;;-4.05;100.00;102099.38;5023711;28;20090;-84
2022/03/02 04:14:01;;;;;;;15.30;9.07;;;;;;;-4.04;100.00;102096.00;5054308;28;20086;-81
2022/03/02 04:16:27;;;;;;;14.37;9.00;;;;;;;-4.01;100.00;102096.19;5063314;28;20040;-80
2022/03/02 04:18:54;;;;;;;14.13;8.37;;;;;;;-3.99;100.00;102098.06;5051644;28;20102;-85
2022/03/02 04:21:21;;;;;;;16.00;8.73;;;;;;;-3.96;100.00;102087.91;5053360;28;20044;-82
2022/03/02 04:23:47;;;;;;;16.50;8.20;;;;;;;-3.91;100.00;102095.06;5054455;28;20044;-82
2022/03/02 04:26:14;;;;;;;15.63;7.83;;;;;;;-3.96;100.00;102090.50;5046251;28;20097;-81
2022/03/02 04:28:41;;;;;;;14.30;8.60;;;;;;;-3.96;100.00;102081.88;5038744;28;20402;-82
2022/03/02 04:31:07;;;;;;;13.33;8.17;;;;;;;-3.96;100.00;102090.50;5027324;28;20045;-82
2022/03/02 04:33:34;;;;;;;15.80;8.50;;;;;;;-3.91;100.00;102085.63;5020718;28;20036;-79
2022/03/02 04:36:01;;;;;;;14.93;8.63;;;;;;;-3.90;100.00;102087.41;5018348;28;20045;-81
2022/03/02 04:38:28;;;;;;;17.30;9.17;;;;;;;-3.81;100.00;102087.06;5037070;28;20044;-81
2022/03/02 04:40:55;;;;;;;14.20;9.13;;;;;;;-3.84;100.00;102086.91;5068390;28;20045;-80
2022/03/02 04:43:22;;;;;;;13.97;9.87;;;;;;;-3.81;100.00;102074.16;5048843;28;20045;-81
2022/03/02 04:45:49;;;;;;;15.67;8.10;;;;;;;-3.79;100.00;102069.97;5038460;28;20052;-79
2022/03/02 04:48:15;;;;;;;13.97;9.27;;;;;;;-3.75;100.00;102072.84;5038917;28;20448;-82
2022/03/02 04:50:47;;;;;;;14.10;8.70;;;;;;;-3.74;100.00;102063.41;5045611;28;20118;-80
2022/03/02 04:53:16;;;;;;;15.57;8.93;;;;;;;-3.78;100.00;102057.19;5013686;28;20044;-82
2022/03/02 04:55:44;;;;;;;16.80;8.63;;;;;;;-3.81;100.00;102049.22;5042437;28;20073;-80
2022/03/02 04:58:12;;;;;;;15.43;8.83;;;;;;;-3.78;100.00;102054.59;5040958;28;20044;-81
2022/03/02 05:00:38;;;;;;;18.47;9.63;;;;;;;-3.78;100.00;102052.03;5043684;28;20048;-80
2022/03/02 05:03:06;;;;;;;18.93;10.27;;;;;;;-3.78;100.00;102048.53;5022045;28;20033;-83
2022/03/02 05:05:35;;;;;;;17.90;8.67;;;;;;;-3.79;100.00;102050.19;5040341;28;20068;-81
2022/03/02 05:08:03;;;;;;;12.63;7.97;;;;;;;-3.77;100.00;102047.75;5023635;28;20040;-83
2022/03/02 05:10:29;;;;;;;14.67;10.13;;;;;;;-3.74;100.00;102045.34;5054441;28;20044;-81
2022/03/02 05:12:56;;;;;;;13.47;8.97;;;;;;;-3.77;100.00;102045.16;5038755;28;20037;-80
2022/03/02 05:15:23;;;;;;;14.63;9.67;;;;;;;-3.70;100.00;102044.69;5045791;28;20045;-83
2022/03/02 05:17:50;;;;;;;14.07;9.17;;;;;;;-3.72;100.00;102042.03;5018989;28;20102;-81
2022/03/02 05:20:18;;;;;;;14.47;9.80;;;;;;;-3.70;100.00;102043.03;5052575;28;20040;-82
2022/03/02 05:22:46;;;;;;;18.73;9.83;;;;;;;-3.61;100.00;102052.13;5038796;28;20060;-80
2022/03/02 05:25:13;;;;;;;19.80;10.97;;;;;;;-3.60;100.00;102041.00;5019657;28;20462;-81
2022/03/02 05:27:40;;;;;;;16.90;10.13;;;;;;;-3.56;100.00;102050.69;5020649;28;20511;-79
2022/03/02 05:30:08;;;;;;;16.07;10.03;;;;;;;-3.61;100.00;102041.78;5023005;28;20514;-79
2022/03/02 05:32:35;;;;;;;17.27;9.47;;;;;;;-3.58;100.00;102048.03;5017209;28;20041;-80
2022/03/02 05:35:02;;;;;;;16.90;9.67;;;;;;;-3.54;100.00;102046.50;5021550;28;20040;-80
2022/03/02 05:37:29;;;;;;;19.20;10.77;;;;;;;-3.51;100.00;102051.84;5024169;28;20762;-79
2022/03/02 05:39:55;;;;;;;18.73;9.87;;;;;;;-3.57;100.00;102047.22;5046333;28;20040;-79
2022/03/02 05:42:22;;;;;;;17.03;10.03;;;;;;;-3.49;100.00;102058.88;5055058;28;20102;-81
2022/03/02 05:44:49;;;;;;;19.63;11.00;;;;;;;-3.51;100.00;102055.34;5068629;28;20128;-82
2022/03/02 05:47:16;;;;;;;19.20;10.77;;;;;;;-3.52;100.00;102048.38;5038295;28;20072;-80
2022/03/02 05:49:43;;;;;;;16.77;9.93;;;;;;;-3.53;100.00;102043.09;5037302;28;20048;-79
2022/03/02 05:52:10;;;;;;;18.47;9.73;;;;;;;-3.54;100.00;102042.22;5062147;28;20302;-82
2022/03/02 05:54:37;;;;;;;17.80;11.47;;;;;;;-3.53;100.00;102043.09;5039387;28;20045;-79
2022/03/02 05:57:04;;;;;;;20.10;10.63;;;;;;;-3.54;100.00;102041.31;5037082;28;20041;-81
2022/03/02 05:59:30;;;;;;;16.17;10.33;;;;;;;-3.55;100.00;102044.72;5053663;28;20045;-79
2022/03/02 06:01:58;;;;;;;17.83;10.13;;;;;;;-3.55;100.00;102045.59;5041644;28;20611;-82
2022/03/02 06:04:26;;;;;;;16.93;10.03;;;;;;;-3.52;100.00;102050.06;5055154;28;20136;-81
2022/03/02 06:06:53;;;;;;;20.23;11.43;;;;;;;-3.42;100.00;102052.38;5024325;28;20258;-81
2022/03/02 06:09:20;;;;;;;19.10;10.97;;;;;;;-3.37;100.00;102058.69;5041067;28;20049;-81
2022/03/02 06:11:47;;;;;;;19.70;11.50;;;;;;;-3.37;100.00;102055.22;5034763;28;20047;-82
2022/03/02 06:14:14;;;;;;;19.27;11.17;;;;;;;-3.41;100.00;102064.50;5060343;28;20104;-81
2022/03/02 06:16:42;;;;;;;19.60;10.57;;;;;;;-3.43;100.00;102061.84;5017974;28;20091;-81
2022/03/02 06:19:09;;;;;;;20.80;11.23;;;;;;;-3.43;100.00;102060.94;5039076;28;20510;-81
2022/03/02 06:21:40;;;;;;;17.70;11.17;;;;;;;-3.41;100.00;102054.16;5021622;28;20048;-81
2022/03/02 06:24:07;;;;;;;18.53;9.77;;;;;;;-3.39;100.00;102055.13;5036289;28;20045;-81
2022/03/02 06:26:34;;;;;;;20.33;10.63;;;;;;;-3.32;100.00;102061.56;5036023;28;20044;-78
2022/03/02 06:29:01;;;;;;;19.23;10.90;;;;;;;-3.22;100.00;102059.59;5047692;28;20049;-82
2022/03/02 06:31:27;;;;;;;18.30;11.40;;;;;;;-3.21;100.00;102050.13;5037222;28;20097;-82
2022/03/02 06:33:54;;;;;;;19.63;12.03;;;;;;;-3.20;100.00;102055.38;5024629;28;20051;-81
2022/03/02 06:36:21;;;;;;;18.90;11.50;;;;;;;-3.19;100.00;102058.91;5021335;28;20510;-81
2022/03/02 06:38:48;;;;;;;21.23;11.60;;;;;;;-3.14;100.00;102065.19;5039272;28;20576;-79
2022/03/02 06:41:24;;;;;;;23.30;13.40;;;;;;;-3.06;100.00;102058.78;5004818;28;20041;-81
2022/03/02 06:44:02;;;;;;;25.50;12.67;;;;;;;-3.04;100.00;102056.28;5058404;28;20091;-81
2022/03/02 06:46:39;;;;;;;21.00;13.37;;;;;;;-2.97;100.00;102061.88;5048000;28;20059;-81
2022/03/02 06:49:22;;;;;;;25.13;13.27;;;;;;;-2.89;100.00;102067.47;5048963;28;20462;-81
2022/03/02 06:51:55;;;;;;;23.10;12.97;;;;;;;-2.93;100.00;102060.38;5035816;28;20079;-80
2022/03/02 06:54:27;;;;;;;21.17;11.10;;;;;;;-2.94;100.00;102056.91;5039367;28;20040;-81
2022/03/02 06:56:56;;;;;;;18.83;11.20;;;;;;;-2.91;100.00;102048.41;5022619;28;20094;-79
2022/03/02 06:59:39;;;;;;;22.53;11.30;;;;;;;-2.83;100.00;102052.31;5023287;28;20106;-81
2022/03/02 07:02:07;;;;;;;19.43;11.87;;;;;;;-2.79;100.00;102045.59;5053569;28;20040;-81
2022/03/02 07:04:38;;;;;;;20.10;12.77;;;;;;;-2.79;100.00;102049.09;5023446;28;20459;-81
2022/03/02 07:07:06;;;;;;;19.43;11.90;;;;;;;-2.78;100.00;102045.69;5055604;28;20082;-81
2022/03/02 07:09:33;;;;;;;19.00;11.17;;;;;;;-2.74;100.00;102046.75;5023046;28;20040;-81
2022/03/02 07:12:02;;;;;;;20.53;12.20;;;;;;;-2.68;100.00;102054.88;5055038;28;20044;-80
2022/03/02 07:14:30;;;;;;;19.00;11.17;;;;;;;-2.60;100.00;102056.19;5046708;28;20090;-81
2022/03/02 07:16:58;;;;;;;22.07;12.20;;;;;;;-2.59;100.00;102053.69;5021457;28;20060;-81
2022/03/02 07:19:27;;;;;;;20.80;12.67;;;;;;;-2.52;100.00;102054.91;5037401;28;20102;-78
2022/03/02 07:21:55;;;;;;;27.27;12.97;;;;;;;-2.42;100.00;102067.53;5020335;28;20040;-79
2022/03/02 07:24:23;;;;;;;22.80;12.43;;;;;;;-2.37;100.00;102058.31;5018737;28;20084;-82
2022/03/02 07:26:52;;;;;;;21.73;12.90;;;;;;;-2.42;100.00;102064.94;5037768;28;20061;-81
2022/03/02 07:29:20;;;;;;;22.83;12.10;;;;;;;-2.42;100.00;102064.06;5039747;28;20041;-81
2022/03/02 07:31:48;;;;;;;21.40;13.13;;;;;;;-2.34;100.00;102062.78;5034494;28;20037;-81
2022/03/02 07:34:19;;;;;;;20.03;12.17;;;;;;;-2.27;100.00;102060.59;5037724;28;20090;-81
2022/03/02 07:36:46;;;;;;;22.40;13.37;;;;;;;-2.20;100.00;102059.22;5037501;28;20048;-80
2022/03/02 07:39:13;;;;;;;23.60;13.33;;;;;;;-2.14;100.00;102061.25;5037845;28;20032;-80
2022/03/02 07:41:40;;;;;;;21.63;11.90;;;;;;;-2.10;100.00;102060.59;5022797;28;20086;-82
2022/03/02 07:44:07;;;;;;;20.50;12.33;;;;;;;-2.09;100.00;102060.69;5037910;28;20468;-81
2022/03/02 07:46:34;;;;;;;19.33;11.83;;;;;;;-2.05;100.00;102061.72;5036447;28;20044;-81
2022/03/02 07:49:02;;;;;;;20.40;11.77;;;;;;;-1.99;100.00;102064.66;5036424;28;20040;-81
2022/03/02 07:51:33;;;;;;;18.67;11.57;;;;;;;-1.86;100.00;102061.00;5036767;28;20048;-81
2022/03/02 07:54:01;;;;;;;22.33;12.53;;;;;;;-1.78;100.00;102060.56;5037657;28;20037;-81
2022/03/02 07:56:29;;;;;;;23.10;13.40;;;;;;;-1.70;100.00;102063.56;5038766;28;20041;-82
2022/03/02 07:59:07;;;;;;;23.27;13.23;;;;;;;-1.56;100.00;102066.88;5064933;28;20107;-83
2022/03/02 08:01:39;;;;;;;19.87;11.53;;;;;;;-1.54;100.00;102070.44;5022871;28;20036;-81
2022/03/02 08:04:08;;;;;;;19.80;11.80;;;;;;;-1.55;100.00;102059.19;5020153;28;20045;-81
2022/03/02 08:06:37;;;;;;;21.27;12.93;;;;;;;-1.54;100.00;102055.75;5022102;28;20446;-81
2022/03/02 08:09:06;;;;;;;23.53;12.20;;;;;;;-1.42;100.00;102048.63;5021310;28;20052;-80
2022/03/02 08:11:34;;;;;;;19.50;11.93;;;;;;;-1.34;100.00;102061.97;5036975;28;20041;-81
2022/03/02 08:14:01;;;;;;;21.93;12.33;;;;;;;-1.18;100.00;102053.22;5021802;28;20695;-81
2022/03/02 08:16:28;;;;;;;22.37;12.37;;;;;;;-1.13;100.00;102047.47;5035382;28;20103;-81
2022/03/02 08:18:56;;;;;;;20.67;12.33;;;;;;;-1.04;100.00;102040.94;5046940;28;20048;-81
2022/03/02 08:21:26;;;;;;;21.27;12.53;;;;;;;-1.03;100.00;102042.72;5039089;28;20045;-82
2022/03/02 08:23:55;;;;;;;20.93;12.67;;;;;;;-0.86;100.00;102044.41;5046184;28;20044;-81
2022/03/02 08:26:23;;;;;;;20.33;12.23;;;;;;;-0.86;100.00;102034.03;5058225;28;20063;-82
2022/03/02 08:28:56;;;;;;;23.90;13.93;;;;;;;-0.77;100.00;102038.78;5029988;28;20052;-83
2022/03/02 08:31:23;;;;;;;22.23;12.90;;;;;;;-0.69;100.00;102030.53;5024176;28;20044;-82
2022/03/02 08:33:51;;;;;;;25.20;14.37;;;;;;;-0.61;100.00;102030.91;5040038;28;20074;-81
2022/03/02 08:36:21;;;;;;;24.70;13.13;;;;;;;-0.52;100.00;102039.09;5039323;28;20609;-81
2022/03/02 08:38:50;;;;;;;27.40;15.80;;;;;;;-0.34;100.00;102033.88;5027824;28;20055;-80
2022/03/02 08:41:19;;;;;;;29.40;15.03;;;;;;;-0.38;100.00;102034.56;5031126;28;20052;-81
2022/03/02 08:43:47;;;;;;;23.77;15.00;;;;;;;-0.43;100.00;102036.06;5029798;28;20498;-83
2022/03/02 08:46:14;;;;;;;28.63;14.00;;;;;;;-0.39;100.00;102031.09;5041176;28;20056;-81
2022/03/02 08:48:47;;;;;;;23.77;14.00;;;;;;;-0.35;100.00;102027.78;5042136;28;20048;-82
2022/03/02 08:51:13;;;;;;;26.60;14.23;;;;;;;-0.35;100.00;102024.31;5038352;28;20098;-82
2022/03/02 08:53:43;;;;;;;26.70;14.23;;;;;;;-0.18;95.79;102032.88;5023735;28;20040;-81
2022/03/02 08:56:09;;;;;;;28.50;16.70;;;;;;;-0.12;94.80;102031.44;5055191;28;20098;-82
2022/03/02 08:58:37;;;;;;;25.70;14.70;;;;;;;-0.08;91.54;102030.78;5050331;28;20044;-83
2022/03/02 09:01:04;;;;;;;26.40;14.73;;;;;;;-0.05;92.55;102030.91;5025446;28;20415;-83
2022/03/02 09:03:33;;;;;;;22.90;14.00;;;;;;;0.04;92.66;102034.72;5047293;28;20113;-82
2022/03/02 09:06:02;;;;;;;27.00;16.53;;;;;;;0.29;87.04;102021.97;5042614;28;20801;-82
2022/03/02 09:08:34;;;;;;;30.27;15.43;;;;;;;0.29;88.00;102027.16;5055640;28;20459;-82
2022/03/02 09:11:01;;;;;;;28.50;15.33;;;;;;;0.32;89.09;102022.09;5062334;28;20063;-82
2022/03/02 09:13:28;;;;;;;24.27;15.60;;;;;;;0.79;83.62;102020.59;5049508;28;20499;-82
2022/03/02 09:15:56;;;;;;;27.33;15.63;;;;;;;0.90;82.39;102024.53;5017851;28;20063;-82
2022/03/02 09:18:23;;;;;;;23.93;14.60;;;;;;;0.92;83.04;102016.78;5022082;28;20106;-78
2022/03/02 09:20:55;;;;;;;32.67;16.60;;;;;;;1.03;82.58;102024.22;5059168;28;20041;-81
2022/03/02 09:23:25;;;;;;;28.03;16.13;;;;;;;1.51;76.86;102023.44;5041444;28;20134;-82
2022/03/02 09:25:54;;;;;;;29.57;15.90;;;;;;;1.86;75.61;102019.56;5037939;28;20065;-83
2022/03/02 09:28:21;;;;;;;28.03;16.03;;;;;;;2.05;74.08;102027.22;5061525;28;20086;-81
2022/03/02 09:30:48;;;;;;;24.57;15.67;;;;;;;2.25;74.53;102020.09;5040125;28;20044;-81
2022/03/02 09:33:16;;;;;;;30.00;16.23;;;;;;;2.45;72.41;102012.97;5020739;28;20095;-80
2022/03/02 09:35:43;;;;;;;27.83;16.50;;;;;;;2.69;70.54;102018.09;5024874;28;20037;-81
2022/03/02 09:38:11;;;;;;;28.20;16.17;;;;;;;2.96;68.58;102024.25;5024658;28;20131;-80
2022/03/02 09:40:43;;;;;;;26.17;15.20;;;;;;;3.32;66.06;102024.53;5036910;28;20045;-80
2022/03/02 09:43:16;;;;;;;20.80;13.83;;;;;;;3.45;67.62;102014.44;5038091;28;20044;-80
2022/03/02 09:45:43;;;;;;;23.33;14.13;;;;;;;3.71;66.28;102004.78;5010820;28;20511;-81
2022/03/02 09:48:17;;;;;;;24.50;14.53;;;;;;;4.05;62.61;102004.88;5039697;28;20082;-81
2022/03/02 09:50:44;;;;;;;17.93;11.37;;;;;;;4.34;60.36;102005.66;5023592;28;20056;-80
2022/03/02 09:53:12;;;;;;;20.87;12.73;;;;;;;4.48;60.91;101998.19;5040271;28;20131;-82
2022/03/02 09:55:42;;;;;;;19.00;11.40;;;;;;;4.70;57.62;101991.72;5023313;28;20037;-82
2022/03/02 09:58:12;;;;;;;22.03;12.60;;;;;;;4.79;57.98;101997.19;5043574;28;20552;-82
2022/03/02 10:00:41;;;;;;;20.27;13.20;;;;;;;4.95;58.75;101991.47;5018601;28;20044;-83
2022/03/02 10:03:10;;;;;;;24.20;13.77;;;;;;;5.12;58.17;101981.41;5032314;28;20047;-81
2022/03/02 10:05:41;;;;;;;23.77;13.40;;;;;;;5.42;54.19;101985.56;5027410;28;20454;-83
2022/03/02 10:08:08;;;;;;;22.00;11.30;;;;;;;5.56;54.47;101982.41;5036147;28;20075;-82
2022/03/02 10:10:37;;;;;;;21.60;11.73;;;;;;;5.77;54.44;101975.81;5034015;28;20454;-82
2022/03/02 10:13:08;;;;;;;15.97;10.80;;;;;;;6.01;53.29;101973.72;5065581;28;20045;-82
2022/03/02 10:15:36;;;;;;;19.87;12.03;;;;;;;6.25;50.98;101968.03;5002638;28;20049;-81
2022/03/02 10:18:05;;;;;;;18.23;10.73;;;;;;;6.36;51.36;101965.59;5103883;23;20094;-83
2022/03/02 10:20:35;;;;;;;16.00;11.00;;;;;;;6.54;51.74;101968.53;5023406;28;20043;-85
2022/03/02 10:23:21;;;;;;;16.73;11.83;;;;;;;6.45;48.94;101968.38;5024246;28;20098;-84
2022/03/02 10:26:10;;;;;;;21.20;10.83;;;;;;;6.49;49.25;101963.22;5037452;28;20044;-83
2022/03/02 10:28:43;;;;;;;16.00;10.43;;;;;;;6.71;48.05;101967.06;5037441;28;20044;-84
2022/03/02 10:31:29;;;;;;;15.97;10.60;;;;;;;6.85;46.12;101969.03;5036039;28;20080;-83
2022/03/02 10:34:02;;;;;;;17.00;10.13;;;;;;;6.46;45.77;101963.16;5026299;28;20131;-83
2022/03/02 10:36:30;;;;;;;16.00;10.53;;;;;;;6.41;45.61;101963.94;5032050;28;20390;-84
2022/03/02 10:38:59;;;;;;;19.57;11.47;;;;;;;6.84;46.21;101960.28;5003821;28;20052;-83
2022/03/02 10:41:28;;;;;;;14.70;9.73;;;;;;;6.96;45.10;101963.09;5047329;28;20461;-83
2022/03/02 10:44:20;;;;;;;16.13;9.83;;;;;;;7.21;46.81;101960.81;5022625;28;20048;-83
2022/03/02 10:46:55;;;;;;;15.77;10.47;;;;;;;7.35;45.61;101956.66;5019122;28;20033;-82
2022/03/02 10:49:22;;;;;;;15.63;9.97;;;;;;;7.60;47.05;101949.97;5010316;28;20037;-84
2022/03/02 10:51:49;;;;;;;12.80;8.77;;;;;;;7.80;42.77;101945.81;5017584;28;20051;-84
2022/03/02 10:54:20;;;;;;;14.23;9.73;;;;;;;7.86;42.83;101937.97;5019230;28;20053;-84
2022/03/02 10:56:51;;;;;;;15.37;10.00;;;;;;;7.92;43.73;101931.91;5039625;28;20071;-84
2022/03/02 10:59:19;;;;;;;15.10;10.10;;;;;;;8.00;42.47;101929.38;5023740;28;20040;-84
2022/03/02 11:01:50;;;;;;;15.73;10.30;;;;;;;8.14;40.04;101933.88;5022995;28;20040;-84
2022/03/02 11:04:20;;;;;;;14.27;9.40;;;;;;;7.90;41.26;101923.09;5035366;28;20132;-84
2022/03/02 11:06:46;;;;;;;12.03;8.10;;;;;;;8.08;42.19;101922.44;5019198;28;20045;-85
2022/03/02 11:09:34;;;;;;;14.33;9.03;;;;;;;7.93;40.60;101914.38;5020809;28;20052;-84
2022/03/02 11:12:01;;;;;;;16.30;10.23;;;;;;;7.96;41.11;101911.78;5019035;28;20041;-84
2022/03/02 11:14:28;;;;;;;16.53;9.57;;;;;;;8.08;40.72;101914.53;5020301;28;20045;-83